sensor_id;sensor_type;location;lat;lon;timestamp;P1;durP1;ratioP1;P2;durP2;ratioP2
68942;SDS011;60852;52.190;4.422;2023-04-07T00:02:24;5.53;;;4.12;;
68942;SDS011;60852;52.190;4.422;2023-04-07T00:04:51;5.38;;;4.00;;
68942;SDS011;60852;52.190;4.422;2023-04-07T00:07:16;5.81;;;4.29;;
68942;SDS011;60852;52.190;4.422;2023-04-07T00:09:42;5.82;;;4.27;;
68942;SDS011;60852;52.190;4.422;2023-04-07T00:12:07;6.33;;;4.56;;
68942;SDS011;60852;52.190;4.422;2023-04-07T00:14:32;6.74;;;4.78;;
68942;SDS011;60852;52.190;4.422;2023-04-07T00:16:58;6.05;;;4.36;;
68942;SDS011;60852;52.190;4.422;2023-04-07T00:19:23;6.53;;;4.70;;
68942;SDS011;60852;52.190;4.422;2023-04-07T00:21:49;6.05;;;4.36;;
68942;SDS011;60852;52.190;4.422;2023-04-07T00:24:14;6.45;;;4.56;;
68942;SDS011;60852;52.190;4.422;2023-04-07T00:26:40;6.51;;;4.53;;
68942;SDS011;60852;52.190;4.422;2023-04-07T00:29:05;6.66;;;4.58;;
68942;SDS011;60852;52.190;4.422;2023-04-07T00:31:30;6.15;;;4.35;;
68942;SDS011;60852;52.190;4.422;2023-04-07T00:33:56;6.38;;;4.49;;
68942;SDS011;60852;52.190;4.422;2023-04-07T00:36:21;5.96;;;4.29;;
68942;SDS011;60852;52.190;4.422;2023-04-07T00:38:47;6.37;;;4.52;;
68942;SDS011;60852;52.190;4.422;2023-04-07T00:41:13;6.85;;;4.86;;
68942;SDS011;60852;52.190;4.422;2023-04-07T00:43:38;6.37;;;4.66;;
68942;SDS011;60852;52.190;4.422;2023-04-07T00:46:04;6.53;;;4.71;;
68942;SDS011;60852;52.190;4.422;2023-04-07T00:48:29;6.77;;;4.80;;
68942;SDS011;60852;52.190;4.422;2023-04-07T00:50:55;6.08;;;4.44;;
68942;SDS011;60852;52.190;4.422;2023-04-07T00:53:21;5.75;;;4.34;;
68942;SDS011;60852;52.190;4.422;2023-04-07T00:55:46;6.35;;;4.81;;
68942;SDS011;60852;52.190;4.422;2023-04-07T00:58:12;5.87;;;4.48;;
68942;SDS011;60852;52.190;4.422;2023-04-07T01:00:48;6.02;;;4.65;;
68942;SDS011;60852;52.190;4.422;2023-04-07T01:06:10;5.99;;;4.52;;
68942;SDS011;60852;52.190;4.422;2023-04-07T01:08:53;5.41;;;4.24;;
68942;SDS011;60852;52.190;4.422;2023-04-07T01:14:17;5.65;;;4.39;;
68942;SDS011;60852;52.190;4.422;2023-04-07T01:16:45;6.16;;;4.72;;
68942;SDS011;60852;52.190;4.422;2023-04-07T01:19:19;5.58;;;4.28;;
68942;SDS011;60852;52.190;4.422;2023-04-07T01:21:56;5.78;;;4.49;;
68942;SDS011;60852;52.190;4.422;2023-04-07T01:27:37;5.54;;;4.28;;
68942;SDS011;60852;52.190;4.422;2023-04-07T01:30:02;5.23;;;4.14;;
68942;SDS011;60852;52.190;4.422;2023-04-07T01:32:36;5.28;;;4.19;;
68942;SDS011;60852;52.190;4.422;2023-04-07T01:35:05;5.15;;;4.12;;
68942;SDS011;60852;52.190;4.422;2023-04-07T01:37:36;4.72;;;3.80;;
68942;SDS011;60852;52.190;4.422;2023-04-07T01:40:03;4.87;;;3.89;;
68942;SDS011;60852;52.190;4.422;2023-04-07T01:42:30;5.13;;;3.97;;
68942;SDS011;60852;52.190;4.422;2023-04-07T01:44:57;4.62;;;3.68;;
68942;SDS011;60852;52.190;4.422;2023-04-07T01:47:26;4.85;;;3.94;;
68942;SDS011;60852;52.190;4.422;2023-04-07T01:49:56;4.22;;;3.43;;
68942;SDS011;60852;52.190;4.422;2023-04-07T01:52:23;4.57;;;3.67;;
68942;SDS011;60852;52.190;4.422;2023-04-07T01:54:50;4.82;;;3.78;;
68942;SDS011;60852;52.190;4.422;2023-04-07T01:57:17;4.63;;;3.57;;
68942;SDS011;60852;52.190;4.422;2023-04-07T01:59:42;4.66;;;3.66;;
68942;SDS011;60852;52.190;4.422;2023-04-07T02:02:08;4.77;;;3.74;;
68942;SDS011;60852;52.190;4.422;2023-04-07T02:04:39;5.09;;;3.93;;
68942;SDS011;60852;52.190;4.422;2023-04-07T02:07:22;4.76;;;3.74;;
68942;SDS011;60852;52.190;4.422;2023-04-07T02:09:56;5.35;;;4.09;;
68942;SDS011;60852;52.190;4.422;2023-04-07T02:12:25;4.91;;;3.75;;
68942;SDS011;60852;52.190;4.422;2023-04-07T02:14:54;5.00;;;3.88;;
68942;SDS011;60852;52.190;4.422;2023-04-07T02:17:22;4.79;;;3.77;;
68942;SDS011;60852;52.190;4.422;2023-04-07T02:19:51;4.61;;;3.62;;
68942;SDS011;60852;52.190;4.422;2023-04-07T02:22:18;4.32;;;3.42;;
68942;SDS011;60852;52.190;4.422;2023-04-07T02:24:44;4.64;;;3.71;;
68942;SDS011;60852;52.190;4.422;2023-04-07T02:27:09;4.67;;;3.74;;
68942;SDS011;60852;52.190;4.422;2023-04-07T02:29:35;4.81;;;3.75;;
68942;SDS011;60852;52.190;4.422;2023-04-07T02:32:00;5.58;;;4.26;;
68942;SDS011;60852;52.190;4.422;2023-04-07T02:34:26;5.42;;;4.07;;
68942;SDS011;60852;52.190;4.422;2023-04-07T02:36:51;5.42;;;4.01;;
68942;SDS011;60852;52.190;4.422;2023-04-07T02:39:17;5.45;;;4.08;;
68942;SDS011;60852;52.190;4.422;2023-04-07T02:41:42;5.61;;;4.20;;
68942;SDS011;60852;52.190;4.422;2023-04-07T02:44:07;4.86;;;3.64;;
68942;SDS011;60852;52.190;4.422;2023-04-07T02:46:33;4.94;;;3.82;;
68942;SDS011;60852;52.190;4.422;2023-04-07T02:48:59;4.59;;;3.64;;
68942;SDS011;60852;52.190;4.422;2023-04-07T02:51:24;4.90;;;3.92;;
68942;SDS011;60852;52.190;4.422;2023-04-07T02:53:51;4.50;;;3.67;;
68942;SDS011;60852;52.190;4.422;2023-04-07T02:56:16;4.73;;;3.87;;
68942;SDS011;60852;52.190;4.422;2023-04-07T02:58:42;4.57;;;3.82;;
68942;SDS011;60852;52.190;4.422;2023-04-07T03:01:07;5.06;;;4.29;;
68942;SDS011;60852;52.190;4.422;2023-04-07T03:03:32;5.18;;;4.35;;
68942;SDS011;60852;52.190;4.422;2023-04-07T03:05:58;4.81;;;4.19;;
68942;SDS011;60852;52.190;4.422;2023-04-07T03:08:23;4.73;;;4.23;;
68942;SDS011;60852;52.190;4.422;2023-04-07T03:10:49;4.37;;;3.96;;
68942;SDS011;60852;52.190;4.422;2023-04-07T03:13:14;4.33;;;3.86;;
68942;SDS011;60852;52.190;4.422;2023-04-07T03:15:43;3.72;;;3.29;;
68942;SDS011;60852;52.190;4.422;2023-04-07T03:18:09;3.49;;;3.02;;
68942;SDS011;60852;52.190;4.422;2023-04-07T03:20:35;3.37;;;2.89;;
68942;SDS011;60852;52.190;4.422;2023-04-07T03:23:02;3.82;;;3.23;;
68942;SDS011;60852;52.190;4.422;2023-04-07T03:25:27;3.82;;;3.17;;
68942;SDS011;60852;52.190;4.422;2023-04-07T03:27:53;3.59;;;2.94;;
68942;SDS011;60852;52.190;4.422;2023-04-07T03:30:19;3.63;;;3.01;;
68942;SDS011;60852;52.190;4.422;2023-04-07T03:32:44;4.28;;;3.57;;
68942;SDS011;60852;52.190;4.422;2023-04-07T03:35:10;3.21;;;2.70;;
68942;SDS011;60852;52.190;4.422;2023-04-07T03:37:35;3.53;;;2.87;;
68942;SDS011;60852;52.190;4.422;2023-04-07T03:40:01;3.77;;;3.01;;
68942;SDS011;60852;52.190;4.422;2023-04-07T03:42:26;3.24;;;2.56;;
68942;SDS011;60852;52.190;4.422;2023-04-07T03:44:52;3.76;;;3.02;;
68942;SDS011;60852;52.190;4.422;2023-04-07T03:47:17;3.64;;;2.89;;
68942;SDS011;60852;52.190;4.422;2023-04-07T03:49:43;3.63;;;2.98;;
68942;SDS011;60852;52.190;4.422;2023-04-07T03:52:08;3.37;;;2.80;;
68942;SDS011;60852;52.190;4.422;2023-04-07T03:54:34;3.72;;;3.00;;
68942;SDS011;60852;52.190;4.422;2023-04-07T03:56:59;4.26;;;3.43;;
68942;SDS011;60852;52.190;4.422;2023-04-07T03:59:26;3.65;;;3.01;;
68942;SDS011;60852;52.190;4.422;2023-04-07T04:01:52;3.72;;;3.00;;
68942;SDS011;60852;52.190;4.422;2023-04-07T04:04:17;4.13;;;3.21;;
68942;SDS011;60852;52.190;4.422;2023-04-07T04:06:43;3.95;;;3.00;;
68942;SDS011;60852;52.190;4.422;2023-04-07T04:09:08;5.22;;;3.84;;
68942;SDS011;60852;52.190;4.422;2023-04-07T04:11:34;4.36;;;3.29;;
68942;SDS011;60852;52.190;4.422;2023-04-07T04:14:00;4.25;;;3.24;;
68942;SDS011;60852;52.190;4.422;2023-04-07T04:16:26;4.36;;;3.31;;
68942;SDS011;60852;52.190;4.422;2023-04-07T04:18:51;4.06;;;3.04;;
68942;SDS011;60852;52.190;4.422;2023-04-07T04:21:16;4.06;;;3.04;;
68942;SDS011;60852;52.190;4.422;2023-04-07T04:23:42;4.60;;;3.43;;
68942;SDS011;60852;52.190;4.422;2023-04-07T04:26:07;5.39;;;3.90;;
68942;SDS011;60852;52.190;4.422;2023-04-07T04:28:33;4.73;;;3.37;;
68942;SDS011;60852;52.190;4.422;2023-04-07T04:30:58;4.46;;;3.24;;
68942;SDS011;60852;52.190;4.422;2023-04-07T04:33:24;4.64;;;3.28;;
68942;SDS011;60852;52.190;4.422;2023-04-07T04:35:49;5.02;;;3.51;;
68942;SDS011;60852;52.190;4.422;2023-04-07T04:38:15;4.59;;;3.23;;
68942;SDS011;60852;52.190;4.422;2023-04-07T04:40:41;4.25;;;3.00;;
68942;SDS011;60852;52.190;4.422;2023-04-07T04:43:06;4.18;;;2.94;;
68942;SDS011;60852;52.190;4.422;2023-04-07T04:45:33;4.19;;;2.94;;
68942;SDS011;60852;52.190;4.422;2023-04-07T04:47:59;3.96;;;2.85;;
68942;SDS011;60852;52.190;4.422;2023-04-07T04:50:25;3.99;;;2.96;;
68942;SDS011;60852;52.190;4.422;2023-04-07T04:52:51;3.50;;;2.79;;
68942;SDS011;60852;52.190;4.422;2023-04-07T04:55:16;2.74;;;2.28;;
68942;SDS011;60852;52.190;4.422;2023-04-07T04:57:42;2.90;;;2.44;;
68942;SDS011;60852;52.190;4.422;2023-04-07T05:00:08;2.78;;;2.33;;
68942;SDS011;60852;52.190;4.422;2023-04-07T05:02:34;3.48;;;2.83;;
68942;SDS011;60852;52.190;4.422;2023-04-07T05:05:00;3.36;;;2.69;;
68942;SDS011;60852;52.190;4.422;2023-04-07T05:07:26;3.49;;;2.85;;
68942;SDS011;60852;52.190;4.422;2023-04-07T05:09:51;3.39;;;2.83;;
68942;SDS011;60852;52.190;4.422;2023-04-07T05:12:17;3.39;;;2.83;;
68942;SDS011;60852;52.190;4.422;2023-04-07T05:14:42;3.88;;;3.09;;
68942;SDS011;60852;52.190;4.422;2023-04-07T05:17:08;3.93;;;3.06;;
68942;SDS011;60852;52.190;4.422;2023-04-07T05:19:33;3.50;;;2.71;;
68942;SDS011;60852;52.190;4.422;2023-04-07T05:21:58;3.98;;;3.08;;
68942;SDS011;60852;52.190;4.422;2023-04-07T05:24:27;3.54;;;2.76;;
68942;SDS011;60852;52.190;4.422;2023-04-07T05:26:53;3.75;;;2.93;;
68942;SDS011;60852;52.190;4.422;2023-04-07T05:29:19;3.44;;;2.73;;
68942;SDS011;60852;52.190;4.422;2023-04-07T05:31:44;3.41;;;2.65;;
68942;SDS011;60852;52.190;4.422;2023-04-07T05:34:10;3.80;;;2.86;;
68942;SDS011;60852;52.190;4.422;2023-04-07T05:36:35;3.77;;;2.78;;
68942;SDS011;60852;52.190;4.422;2023-04-07T05:39:01;4.39;;;3.23;;
68942;SDS011;60852;52.190;4.422;2023-04-07T05:41:26;4.48;;;3.34;;
68942;SDS011;60852;52.190;4.422;2023-04-07T05:43:51;4.06;;;3.04;;
68942;SDS011;60852;52.190;4.422;2023-04-07T05:46:17;4.09;;;3.11;;
68942;SDS011;60852;52.190;4.422;2023-04-07T05:48:42;4.25;;;3.21;;
68942;SDS011;60852;52.190;4.422;2023-04-07T05:51:08;4.56;;;3.31;;
68942;SDS011;60852;52.190;4.422;2023-04-07T05:53:33;5.62;;;3.94;;
68942;SDS011;60852;52.190;4.422;2023-04-07T05:55:59;6.06;;;4.15;;
68942;SDS011;60852;52.190;4.422;2023-04-07T05:58:24;5.49;;;3.70;;
68942;SDS011;60852;52.190;4.422;2023-04-07T06:00:50;5.60;;;3.84;;
68942;SDS011;60852;52.190;4.422;2023-04-07T06:03:15;5.63;;;3.90;;
68942;SDS011;60852;52.190;4.422;2023-04-07T06:05:41;6.09;;;4.16;;
68942;SDS011;60852;52.190;4.422;2023-04-07T06:08:08;6.45;;;4.32;;
68942;SDS011;60852;52.190;4.422;2023-04-07T06:10:34;6.79;;;4.53;;
68942;SDS011;60852;52.190;4.422;2023-04-07T06:13:00;7.11;;;4.66;;
68942;SDS011;60852;52.190;4.422;2023-04-07T06:15:25;7.54;;;4.94;;
68942;SDS011;60852;52.190;4.422;2023-04-07T06:17:50;8.10;;;5.13;;
68942;SDS011;60852;52.190;4.422;2023-04-07T06:20:16;6.95;;;4.46;;
68942;SDS011;60852;52.190;4.422;2023-04-07T06:22:41;6.31;;;4.25;;
68942;SDS011;60852;52.190;4.422;2023-04-07T06:25:07;5.42;;;3.72;;
68942;SDS011;60852;52.190;4.422;2023-04-07T06:27:34;5.48;;;3.78;;
68942;SDS011;60852;52.190;4.422;2023-04-07T06:30:00;5.84;;;4.49;;
68942;SDS011;60852;52.190;4.422;2023-04-07T06:32:25;3.79;;;2.98;;
68942;SDS011;60852;52.190;4.422;2023-04-07T06:34:51;4.15;;;3.24;;
68942;SDS011;60852;52.190;4.422;2023-04-07T06:37:16;4.03;;;3.10;;
68942;SDS011;60852;52.190;4.422;2023-04-07T06:39:42;4.45;;;3.45;;
68942;SDS011;60852;52.190;4.422;2023-04-07T06:42:07;4.70;;;3.66;;
68942;SDS011;60852;52.190;4.422;2023-04-07T06:44:33;4.97;;;3.90;;
68942;SDS011;60852;52.190;4.422;2023-04-07T06:46:58;5.00;;;4.02;;
68942;SDS011;60852;52.190;4.422;2023-04-07T06:49:24;4.29;;;3.37;;
68942;SDS011;60852;52.190;4.422;2023-04-07T06:51:49;4.74;;;3.62;;
68942;SDS011;60852;52.190;4.422;2023-04-07T06:54:15;5.08;;;3.84;;
68942;SDS011;60852;52.190;4.422;2023-04-07T06:56:40;5.17;;;3.90;;
68942;SDS011;60852;52.190;4.422;2023-04-07T06:59:07;5.49;;;4.12;;
68942;SDS011;60852;52.190;4.422;2023-04-07T07:01:33;4.94;;;3.74;;
68942;SDS011;60852;52.190;4.422;2023-04-07T07:03:58;5.06;;;3.88;;
68942;SDS011;60852;52.190;4.422;2023-04-07T07:06:27;6.57;;;4.95;;
68942;SDS011;60852;52.190;4.422;2023-04-07T07:08:53;4.98;;;3.78;;
68942;SDS011;60852;52.190;4.422;2023-04-07T07:11:18;5.64;;;4.18;;
68942;SDS011;60852;52.190;4.422;2023-04-07T07:13:44;4.99;;;3.73;;
68942;SDS011;60852;52.190;4.422;2023-04-07T07:16:10;5.19;;;3.85;;
68942;SDS011;60852;52.190;4.422;2023-04-07T07:18:36;5.25;;;3.84;;
68942;SDS011;60852;52.190;4.422;2023-04-07T07:21:02;5.10;;;3.69;;
68942;SDS011;60852;52.190;4.422;2023-04-07T07:23:28;6.09;;;4.29;;
68942;SDS011;60852;52.190;4.422;2023-04-07T07:25:54;5.29;;;3.83;;
68942;SDS011;60852;52.190;4.422;2023-04-07T07:28:19;5.54;;;3.98;;
68942;SDS011;60852;52.190;4.422;2023-04-07T07:30:46;5.58;;;3.99;;
68942;SDS011;60852;52.190;4.422;2023-04-07T07:33:11;5.16;;;3.75;;
68942;SDS011;60852;52.190;4.422;2023-04-07T07:35:37;5.31;;;3.77;;
68942;SDS011;60852;52.190;4.422;2023-04-07T07:38:04;4.93;;;3.50;;
68942;SDS011;60852;52.190;4.422;2023-04-07T07:40:30;5.32;;;3.72;;
68942;SDS011;60852;52.190;4.422;2023-04-07T07:42:56;5.19;;;3.70;;
68942;SDS011;60852;52.190;4.422;2023-04-07T07:45:21;4.77;;;3.37;;
68942;SDS011;60852;52.190;4.422;2023-04-07T07:47:47;4.97;;;3.46;;
68942;SDS011;60852;52.190;4.422;2023-04-07T07:50:12;5.20;;;3.63;;
68942;SDS011;60852;52.190;4.422;2023-04-07T07:52:38;5.58;;;3.91;;
68942;SDS011;60852;52.190;4.422;2023-04-07T07:55:03;5.31;;;3.71;;
68942;SDS011;60852;52.190;4.422;2023-04-07T07:57:29;5.63;;;4.04;;
68942;SDS011;60852;52.190;4.422;2023-04-07T07:59:57;5.52;;;3.94;;
68942;SDS011;60852;52.190;4.422;2023-04-07T08:02:23;7.05;;;5.09;;
68942;SDS011;60852;52.190;4.422;2023-04-07T08:04:54;5.30;;;3.80;;
68942;SDS011;60852;52.190;4.422;2023-04-07T08:07:20;6.28;;;4.35;;
68942;SDS011;60852;52.190;4.422;2023-04-07T08:09:46;5.78;;;3.92;;
68942;SDS011;60852;52.190;4.422;2023-04-07T08:12:11;6.01;;;4.10;;
68942;SDS011;60852;52.190;4.422;2023-04-07T08:14:37;5.50;;;3.82;;
68942;SDS011;60852;52.190;4.422;2023-04-07T08:17:02;5.05;;;3.51;;
68942;SDS011;60852;52.190;4.422;2023-04-07T08:19:28;5.36;;;3.67;;
68942;SDS011;60852;52.190;4.422;2023-04-07T08:21:53;5.63;;;3.94;;
68942;SDS011;60852;52.190;4.422;2023-04-07T08:24:18;5.54;;;4.02;;
68942;SDS011;60852;52.190;4.422;2023-04-07T08:26:44;5.08;;;3.70;;
68942;SDS011;60852;52.190;4.422;2023-04-07T08:29:09;4.84;;;3.49;;
68942;SDS011;60852;52.190;4.422;2023-04-07T08:31:35;4.89;;;3.54;;
68942;SDS011;60852;52.190;4.422;2023-04-07T08:34:00;5.06;;;3.70;;
68942;SDS011;60852;52.190;4.422;2023-04-07T08:36:26;5.66;;;3.95;;
68942;SDS011;60852;52.190;4.422;2023-04-07T08:38:53;6.62;;;4.49;;
68942;SDS011;60852;52.190;4.422;2023-04-07T08:41:40;6.54;;;4.43;;
68942;SDS011;60852;52.190;4.422;2023-04-07T08:44:08;6.41;;;4.42;;
68942;SDS011;60852;52.190;4.422;2023-04-07T08:46:34;6.50;;;4.43;;
68942;SDS011;60852;52.190;4.422;2023-04-07T08:49:03;6.49;;;4.50;;
68942;SDS011;60852;52.190;4.422;2023-04-07T08:51:39;6.31;;;4.36;;
68942;SDS011;60852;52.190;4.422;2023-04-07T08:54:12;6.24;;;4.39;;
68942;SDS011;60852;52.190;4.422;2023-04-07T08:56:42;6.53;;;4.54;;
68942;SDS011;60852;52.190;4.422;2023-04-07T08:59:11;5.99;;;4.16;;
68942;SDS011;60852;52.190;4.422;2023-04-07T09:01:39;6.48;;;4.45;;
68942;SDS011;60852;52.190;4.422;2023-04-07T09:04:06;6.59;;;4.48;;
68942;SDS011;60852;52.190;4.422;2023-04-07T09:06:33;6.31;;;4.31;;
68942;SDS011;60852;52.190;4.422;2023-04-07T09:09:00;6.19;;;4.13;;
68942;SDS011;60852;52.190;4.422;2023-04-07T09:11:27;6.73;;;4.50;;
68942;SDS011;60852;52.190;4.422;2023-04-07T09:13:54;7.39;;;4.87;;
68942;SDS011;60852;52.190;4.422;2023-04-07T09:16:20;7.06;;;4.80;;
68942;SDS011;60852;52.190;4.422;2023-04-07T09:18:48;6.89;;;4.64;;
68942;SDS011;60852;52.190;4.422;2023-04-07T09:21:13;7.01;;;4.80;;
68942;SDS011;60852;52.190;4.422;2023-04-07T09:23:40;9.01;;;6.30;;
68942;SDS011;60852;52.190;4.422;2023-04-07T09:29:07;7.06;;;4.95;;
68942;SDS011;60852;52.190;4.422;2023-04-07T09:32:04;7.43;;;5.06;;
68942;SDS011;60852;52.190;4.422;2023-04-07T09:34:30;8.91;;;5.83;;
68942;SDS011;60852;52.190;4.422;2023-04-07T09:37:00;8.66;;;5.87;;
68942;SDS011;60852;52.190;4.422;2023-04-07T09:39:27;8.16;;;5.41;;
68942;SDS011;60852;52.190;4.422;2023-04-07T09:41:53;8.41;;;5.56;;
68942;SDS011;60852;52.190;4.422;2023-04-07T09:44:19;8.97;;;5.90;;
68942;SDS011;60852;52.190;4.422;2023-04-07T09:46:47;10.19;;;6.63;;
68942;SDS011;60852;52.190;4.422;2023-04-07T09:49:18;9.75;;;6.51;;
68942;SDS011;60852;52.190;4.422;2023-04-07T09:51:58;10.81;;;7.01;;
68942;SDS011;60852;52.190;4.422;2023-04-07T09:56:57;10.37;;;6.88;;
68942;SDS011;60852;52.190;4.422;2023-04-07T09:59:26;9.15;;;6.14;;
68942;SDS011;60852;52.190;4.422;2023-04-07T10:01:53;9.67;;;6.33;;
68942;SDS011;60852;52.190;4.422;2023-04-07T10:04:19;9.48;;;6.16;;
68942;SDS011;60852;52.190;4.422;2023-04-07T10:06:45;8.36;;;5.46;;
68942;SDS011;60852;52.190;4.422;2023-04-07T10:09:11;8.84;;;5.80;;
68942;SDS011;60852;52.190;4.422;2023-04-07T10:11:38;7.77;;;5.26;;
68942;SDS011;60852;52.190;4.422;2023-04-07T10:14:06;6.76;;;4.86;;
68942;SDS011;60852;52.190;4.422;2023-04-07T10:16:34;7.14;;;5.21;;
68942;SDS011;60852;52.190;4.422;2023-04-07T10:19:01;6.94;;;4.96;;
68942;SDS011;60852;52.190;4.422;2023-04-07T10:21:27;6.62;;;4.66;;
68942;SDS011;60852;52.190;4.422;2023-04-07T10:26:28;7.68;;;5.18;;
68942;SDS011;60852;52.190;4.422;2023-04-07T10:29:05;7.54;;;5.13;;
68942;SDS011;60852;52.190;4.422;2023-04-07T10:31:35;8.36;;;5.71;;
68942;SDS011;60852;52.190;4.422;2023-04-07T10:34:02;8.55;;;5.84;;
68942;SDS011;60852;52.190;4.422;2023-04-07T10:36:29;8.00;;;5.46;;
68942;SDS011;60852;52.190;4.422;2023-04-07T10:44:02;9.71;;;6.99;;
68942;SDS011;60852;52.190;4.422;2023-04-07T10:49:10;7.37;;;5.27;;
68942;SDS011;60852;52.190;4.422;2023-04-07T10:51:37;7.53;;;5.19;;
68942;SDS011;60852;52.190;4.422;2023-04-07T10:54:15;8.02;;;5.63;;
68942;SDS011;60852;52.190;4.422;2023-04-07T10:59:31;7.63;;;5.47;;
68942;SDS011;60852;52.190;4.422;2023-04-07T11:04:39;6.32;;;4.64;;
68942;SDS011;60852;52.190;4.422;2023-04-07T11:07:07;6.77;;;4.72;;
68942;SDS011;60852;52.190;4.422;2023-04-07T11:09:33;9.15;;;6.26;;
68942;SDS011;60852;52.190;4.422;2023-04-07T11:11:59;9.14;;;6.22;;
68942;SDS011;60852;52.190;4.422;2023-04-07T11:14:27;8.14;;;5.49;;
68942;SDS011;60852;52.190;4.422;2023-04-07T11:16:54;8.30;;;5.63;;
68942;SDS011;60852;52.190;4.422;2023-04-07T11:19:20;7.46;;;5.03;;
68942;SDS011;60852;52.190;4.422;2023-04-07T11:21:46;7.10;;;4.81;;
68942;SDS011;60852;52.190;4.422;2023-04-07T11:24:31;6.63;;;4.48;;
68942;SDS011;60852;52.190;4.422;2023-04-07T11:26:58;6.85;;;4.65;;
68942;SDS011;60852;52.190;4.422;2023-04-07T11:29:30;6.77;;;4.65;;
68942;SDS011;60852;52.190;4.422;2023-04-07T11:32:00;6.92;;;4.68;;
68942;SDS011;60852;52.190;4.422;2023-04-07T11:34:30;6.71;;;4.50;;
68942;SDS011;60852;52.190;4.422;2023-04-07T11:36:57;6.96;;;4.63;;
68942;SDS011;60852;52.190;4.422;2023-04-07T11:39:42;7.30;;;4.84;;
68942;SDS011;60852;52.190;4.422;2023-04-07T11:42:10;7.36;;;4.84;;
68942;SDS011;60852;52.190;4.422;2023-04-07T11:44:43;8.04;;;5.40;;
68942;SDS011;60852;52.190;4.422;2023-04-07T11:47:11;5.97;;;4.21;;
68942;SDS011;60852;52.190;4.422;2023-04-07T11:49:43;5.82;;;4.11;;
68942;SDS011;60852;52.190;4.422;2023-04-07T11:52:11;5.77;;;4.08;;
68942;SDS011;60852;52.190;4.422;2023-04-07T11:57:27;6.32;;;4.49;;
68942;SDS011;60852;52.190;4.422;2023-04-07T12:00:05;5.89;;;4.06;;
68942;SDS011;60852;52.190;4.422;2023-04-07T12:02:32;6.90;;;4.63;;
68942;SDS011;60852;52.190;4.422;2023-04-07T12:04:58;6.71;;;4.55;;
68942;SDS011;60852;52.190;4.422;2023-04-07T12:07:24;6.86;;;4.69;;
68942;SDS011;60852;52.190;4.422;2023-04-07T12:09:51;8.07;;;5.57;;
68942;SDS011;60852;52.190;4.422;2023-04-07T12:12:25;6.52;;;4.65;;
68942;SDS011;60852;52.190;4.422;2023-04-07T12:14:51;7.42;;;5.27;;
68942;SDS011;60852;52.190;4.422;2023-04-07T12:17:21;6.32;;;4.57;;
68942;SDS011;60852;52.190;4.422;2023-04-07T12:19:46;6.94;;;4.91;;
68942;SDS011;60852;52.190;4.422;2023-04-07T12:22:12;7.03;;;4.99;;
68942;SDS011;60852;52.190;4.422;2023-04-07T12:24:37;6.79;;;4.82;;
68942;SDS011;60852;52.190;4.422;2023-04-07T12:27:03;6.06;;;4.37;;
68942;SDS011;60852;52.190;4.422;2023-04-07T12:29:28;5.61;;;4.15;;
68942;SDS011;60852;52.190;4.422;2023-04-07T12:31:54;6.39;;;4.55;;
68942;SDS011;60852;52.190;4.422;2023-04-07T12:34:20;6.87;;;4.94;;
68942;SDS011;60852;52.190;4.422;2023-04-07T12:36:46;6.85;;;5.04;;
68942;SDS011;60852;52.190;4.422;2023-04-07T12:39:11;6.37;;;4.72;;
68942;SDS011;60852;52.190;4.422;2023-04-07T12:41:37;6.79;;;4.92;;
68942;SDS011;60852;52.190;4.422;2023-04-07T12:44:03;9.57;;;7.41;;
68942;SDS011;60852;52.190;4.422;2023-04-07T12:46:30;6.54;;;5.25;;
68942;SDS011;60852;52.190;4.422;2023-04-07T12:48:55;6.35;;;4.71;;
68942;SDS011;60852;52.190;4.422;2023-04-07T12:51:21;7.86;;;5.80;;
68942;SDS011;60852;52.190;4.422;2023-04-07T12:53:46;7.20;;;5.30;;
68942;SDS011;60852;52.190;4.422;2023-04-07T12:56:12;7.23;;;5.24;;
68942;SDS011;60852;52.190;4.422;2023-04-07T12:58:38;7.66;;;5.54;;
68942;SDS011;60852;52.190;4.422;2023-04-07T13:01:04;8.59;;;6.33;;
68942;SDS011;60852;52.190;4.422;2023-04-07T13:03:30;10.46;;;7.39;;
68942;SDS011;60852;52.190;4.422;2023-04-07T13:05:55;10.06;;;7.24;;
68942;SDS011;60852;52.190;4.422;2023-04-07T13:08:25;8.87;;;6.61;;
68942;SDS011;60852;52.190;4.422;2023-04-07T13:10:52;9.64;;;7.13;;
68942;SDS011;60852;52.190;4.422;2023-04-07T13:13:17;8.16;;;6.15;;
68942;SDS011;60852;52.190;4.422;2023-04-07T13:15:43;8.03;;;6.17;;
68942;SDS011;60852;52.190;4.422;2023-04-07T13:18:08;7.79;;;5.91;;
68942;SDS011;60852;52.190;4.422;2023-04-07T13:20:34;6.95;;;5.34;;
68942;SDS011;60852;52.190;4.422;2023-04-07T13:22:59;7.57;;;5.67;;
68942;SDS011;60852;52.190;4.422;2023-04-07T13:25:25;7.66;;;5.68;;
68942;SDS011;60852;52.190;4.422;2023-04-07T13:27:50;7.93;;;5.81;;
68942;SDS011;60852;52.190;4.422;2023-04-07T13:30:15;8.32;;;6.09;;
68942;SDS011;60852;52.190;4.422;2023-04-07T13:32:41;7.50;;;5.76;;
68942;SDS011;60852;52.190;4.422;2023-04-07T13:35:07;7.60;;;5.92;;
68942;SDS011;60852;52.190;4.422;2023-04-07T13:37:32;8.72;;;6.73;;
68942;SDS011;60852;52.190;4.422;2023-04-07T13:39:58;7.20;;;5.71;;
68942;SDS011;60852;52.190;4.422;2023-04-07T13:42:23;7.27;;;5.79;;
68942;SDS011;60852;52.190;4.422;2023-04-07T13:44:49;8.03;;;6.27;;
68942;SDS011;60852;52.190;4.422;2023-04-07T13:47:15;7.01;;;5.33;;
68942;SDS011;60852;52.190;4.422;2023-04-07T13:49:45;7.34;;;5.70;;
68942;SDS011;60852;52.190;4.422;2023-04-07T13:52:11;7.15;;;5.69;;
68942;SDS011;60852;52.190;4.422;2023-04-07T13:54:37;6.48;;;5.16;;
68942;SDS011;60852;52.190;4.422;2023-04-07T13:57:03;7.33;;;5.73;;
68942;SDS011;60852;52.190;4.422;2023-04-07T13:59:29;7.23;;;5.71;;
68942;SDS011;60852;52.190;4.422;2023-04-07T14:01:55;7.55;;;6.12;;
68942;SDS011;60852;52.190;4.422;2023-04-07T14:04:21;8.96;;;7.18;;
68942;SDS011;60852;52.190;4.422;2023-04-07T14:06:47;7.69;;;5.96;;
68942;SDS011;60852;52.190;4.422;2023-04-07T14:09:12;8.02;;;6.27;;
68942;SDS011;60852;52.190;4.422;2023-04-07T14:11:38;8.21;;;6.58;;
68942;SDS011;60852;52.190;4.422;2023-04-07T14:14:03;6.83;;;5.31;;
68942;SDS011;60852;52.190;4.422;2023-04-07T14:16:30;7.45;;;5.75;;
68942;SDS011;60852;52.190;4.422;2023-04-07T14:18:55;8.00;;;6.08;;
68942;SDS011;60852;52.190;4.422;2023-04-07T14:21:22;7.14;;;5.65;;
68942;SDS011;60852;52.190;4.422;2023-04-07T14:23:48;7.06;;;6.09;;
68942;SDS011;60852;52.190;4.422;2023-04-07T14:26:13;7.54;;;6.56;;
68942;SDS011;60852;52.190;4.422;2023-04-07T14:28:39;6.75;;;5.73;;
68942;SDS011;60852;52.190;4.422;2023-04-07T14:31:05;7.54;;;6.55;;
68942;SDS011;60852;52.190;4.422;2023-04-07T14:33:35;11.86;;;11.28;;
68942;SDS011;60852;52.190;4.422;2023-04-07T14:36:01;5.86;;;5.46;;
68942;SDS011;60852;52.190;4.422;2023-04-07T14:38:26;6.52;;;5.90;;
68942;SDS011;60852;52.190;4.422;2023-04-07T14:40:52;7.00;;;6.22;;
68942;SDS011;60852;52.190;4.422;2023-04-07T14:43:17;6.49;;;6.08;;
68942;SDS011;60852;52.190;4.422;2023-04-07T14:45:43;5.90;;;5.45;;
68942;SDS011;60852;52.190;4.422;2023-04-07T14:48:08;5.99;;;5.40;;
68942;SDS011;60852;52.190;4.422;2023-04-07T14:50:34;6.28;;;5.61;;
68942;SDS011;60852;52.190;4.422;2023-04-07T14:52:59;9.52;;;9.00;;
68942;SDS011;60852;52.190;4.422;2023-04-07T14:55:25;9.95;;;9.93;;
68942;SDS011;60852;52.190;4.422;2023-04-07T14:57:50;9.12;;;8.73;;
68942;SDS011;60852;52.190;4.422;2023-04-07T15:00:16;8.06;;;7.52;;
68942;SDS011;60852;52.190;4.422;2023-04-07T15:02:41;8.61;;;7.99;;
68942;SDS011;60852;52.190;4.422;2023-04-07T15:05:07;8.34;;;8.12;;
68942;SDS011;60852;52.190;4.422;2023-04-07T15:07:33;8.10;;;7.85;;
68942;SDS011;60852;52.190;4.422;2023-04-07T15:09:59;7.24;;;6.84;;
68942;SDS011;60852;52.190;4.422;2023-04-07T15:12:25;9.31;;;8.61;;
68942;SDS011;60852;52.190;4.422;2023-04-07T15:14:52;8.08;;;7.58;;
68942;SDS011;60852;52.190;4.422;2023-04-07T15:17:17;9.51;;;8.77;;
68942;SDS011;60852;52.190;4.422;2023-04-07T15:19:44;11.25;;;10.34;;